createdAt,value
2023-01-31T00:04:35.253Z,5.07
2023-01-31T00:07:06.197Z,4.07
2023-01-31T00:09:33.839Z,3.88
2023-01-31T00:12:02.030Z,3.78
2023-01-31T00:14:29.921Z,4.15
2023-01-31T00:16:57.595Z,4.30
2023-01-31T00:19:25.285Z,4.72
2023-01-31T00:21:54.092Z,3.30
2023-01-31T00:24:27.908Z,4.20
2023-01-31T00:26:57.282Z,4.10
2023-01-31T00:29:26.901Z,4.05
2023-01-31T00:31:54.815Z,3.67
2023-01-31T00:34:23.824Z,3.60
2023-01-31T00:36:54.381Z,5.57
2023-01-31T00:39:22.440Z,3.88
2023-01-31T00:41:51.248Z,3.70
2023-01-31T00:44:18.913Z,4.20
2023-01-31T00:46:50.724Z,3.47
2023-01-31T00:49:22.424Z,4.50
2023-01-31T00:51:50.538Z,4.00
2023-01-31T00:54:21.077Z,4.75
2023-01-31T00:56:48.696Z,3.55
2023-01-31T00:59:17.239Z,5.15
2023-01-31T01:03:37.188Z,4.93
2023-01-31T01:06:05.464Z,5.53
2023-01-31T01:08:33.384Z,4.78
2023-01-31T01:11:10.991Z,4.70
2023-01-31T01:13:39.114Z,4.20
2023-01-31T01:16:08.107Z,4.57
2023-01-31T01:18:36.477Z,3.85
2023-01-31T01:21:10.087Z,4.45
2023-01-31T01:23:38.261Z,4.28
2023-01-31T01:26:06.175Z,4.28
2023-01-31T01:28:35.273Z,3.90
2023-01-31T01:31:07.150Z,5.65
2023-01-31T01:33:39.473Z,4.20
2023-01-31T01:36:10.971Z,4.70
2023-01-31T01:38:42.021Z,4.00
2023-01-31T01:41:10.378Z,4.32
2023-01-31T01:43:44.177Z,4.40
2023-01-31T01:46:14.497Z,4.22
2023-01-31T01:48:43.185Z,4.43
2023-01-31T01:51:11.695Z,3.72
2023-01-31T01:53:42.329Z,4.57
2023-01-31T01:56:11.525Z,4.18
2023-01-31T01:58:42.568Z,6.32
2023-01-31T02:01:11.289Z,4.25
2023-01-31T02:03:39.569Z,4.13
2023-01-31T02:06:08.188Z,4.50
2023-01-31T02:08:37.790Z,3.72
2023-01-31T02:11:24.229Z,4.18
2023-01-31T02:13:54.947Z,3.70
2023-01-31T02:16:24.710Z,4.32
2023-01-31T02:18:53.600Z,3.92
2023-01-31T02:21:33.446Z,4.00
2023-01-31T02:24:13.561Z,4.53
2023-01-31T02:26:59.506Z,4.25
2023-01-31T02:29:27.713Z,3.53
2023-01-31T02:31:55.112Z,3.92
2023-01-31T02:34:40.103Z,3.92
2023-01-31T02:37:10.662Z,3.80
2023-01-31T02:39:44.723Z,3.47
2023-01-31T02:42:18.951Z,6.80
2023-01-31T02:45:01.873Z,4.47
2023-01-31T02:47:29.982Z,4.80
2023-01-31T02:50:14.829Z,4.70
2023-01-31T02:52:57.352Z,5.47
2023-01-31T02:58:13.090Z,6.60
2023-01-31T03:00:44.545Z,6.55
2023-01-31T03:03:23.054Z,6.75
2023-01-31T03:06:10.858Z,6.70
2023-01-31T03:08:44.498Z,7.82
2023-01-31T03:11:13.386Z,6.57
2023-01-31T03:13:50.436Z,6.50
2023-01-31T03:16:40.595Z,6.63
2023-01-31T03:19:22.645Z,8.05
2023-01-31T03:21:53.400Z,7.28
2023-01-31T03:24:26.478Z,9.15
2023-01-31T03:26:57.001Z,7.75
2023-01-31T03:29:27.212Z,8.23
2023-01-31T03:31:57.757Z,9.02
2023-01-31T03:34:30.329Z,10.85
2023-01-31T03:37:02.265Z,9.15
2023-01-31T03:39:52.860Z,9.30
2023-01-31T03:42:23.018Z,9.85
2023-01-31T03:45:10.533Z,9.63
2023-01-31T03:47:46.560Z,10.13
2023-01-31T03:50:18.227Z,10.70
2023-01-31T03:52:52.150Z,9.43
2023-01-31T03:55:42.201Z,10.32
2023-01-31T03:58:11.622Z,10.55
2023-01-31T04:00:43.777Z,12.07
2023-01-31T04:03:14.971Z,10.75
2023-01-31T04:05:43.117Z,10.38
2023-01-31T04:08:12.259Z,11.10
2023-01-31T04:10:42.775Z,12.25
2023-01-31T04:13:10.555Z,11.57
2023-01-31T04:15:39.467Z,12.43
2023-01-31T04:18:07.263Z,12.32
2023-01-31T04:20:35.386Z,11.15
2023-01-31T04:23:04.258Z,12.23
2023-01-31T04:25:32.851Z,11.13
2023-01-31T04:28:01.860Z,12.10
2023-01-31T04:30:29.554Z,12.23
2023-01-31T04:32:57.281Z,12.82
2023-01-31T04:35:24.924Z,12.10
2023-01-31T04:37:58.678Z,13.43
2023-01-31T04:40:26.786Z,13.25
2023-01-31T04:42:54.221Z,12.35
2023-01-31T04:45:22.667Z,13.38
2023-01-31T04:47:51.574Z,14.00
2023-01-31T04:50:21.207Z,13.30
2023-01-31T04:52:52.919Z,15.13
2023-01-31T04:55:22.261Z,14.93
2023-01-31T04:57:52.566Z,13.43
2023-01-31T05:00:24.973Z,14.15
2023-01-31T05:02:53.156Z,13.70
2023-01-31T05:05:26.818Z,13.50
2023-01-31T05:07:54.871Z,13.90
2023-01-31T05:10:22.943Z,14.07
2023-01-31T05:12:53.411Z,13.25
2023-01-31T05:18:03.333Z,16.60
2023-01-31T05:20:32.649Z,15.82
2023-01-31T05:23:06.703Z,13.82
2023-01-31T05:25:36.405Z,15.13
2023-01-31T05:28:04.927Z,15.90
2023-01-31T05:30:33.040Z,14.57
2023-01-31T05:33:01.113Z,14.93
2023-01-31T05:35:29.028Z,16.20
2023-01-31T05:37:57.406Z,14.90
2023-01-31T05:40:25.682Z,14.88
2023-01-31T05:43:03.227Z,15.32
2023-01-31T05:45:31.741Z,14.60
2023-01-31T05:47:59.633Z,14.68
2023-01-31T05:50:27.349Z,14.63
2023-01-31T05:53:05.206Z,16.02
2023-01-31T05:55:33.250Z,14.93
2023-01-31T05:58:01.764Z,15.30
2023-01-31T06:00:30.137Z,15.02
2023-01-31T06:03:00.153Z,16.13
2023-01-31T06:05:28.652Z,14.82
2023-01-31T06:07:57.732Z,16.17
2023-01-31T06:10:25.394Z,15.55
2023-01-31T06:12:53.396Z,15.30
2023-01-31T06:15:23.046Z,15.93
2023-01-31T06:17:51.948Z,15.53
2023-01-31T06:20:22.436Z,15.70
2023-01-31T06:25:20.551Z,15.30
2023-01-31T06:27:48.430Z,14.10
2023-01-31T06:30:18.927Z,15.63
2023-01-31T06:32:48.139Z,14.70
2023-01-31T06:35:15.648Z,16.65
2023-01-31T06:37:43.237Z,15.07
2023-01-31T06:40:11.501Z,14.70
2023-01-31T06:42:41.892Z,15.02
2023-01-31T06:47:37.250Z,15.88
2023-01-31T06:50:04.955Z,14.95
2023-01-31T06:52:33.595Z,15.48
2023-01-31T06:55:01.391Z,15.88
2023-01-31T06:57:29.140Z,15.07
2023-01-31T06:59:56.961Z,14.27
2023-01-31T07:02:24.871Z,14.02
2023-01-31T07:04:56.683Z,13.73
2023-01-31T07:07:24.957Z,14.35
2023-01-31T07:09:53.997Z,13.82
2023-01-31T07:12:25.010Z,12.43
2023-01-31T07:14:56.699Z,11.65
2023-01-31T07:17:25.557Z,12.68
2023-01-31T07:19:54.094Z,11.70
2023-01-31T07:22:22.671Z,13.13
2023-01-31T07:24:54.681Z,11.60
2023-01-31T07:27:22.335Z,11.90
2023-01-31T07:29:50.481Z,11.50
2023-01-31T07:32:18.240Z,10.77
2023-01-31T07:34:46.604Z,11.73
2023-01-31T07:37:14.361Z,10.90
2023-01-31T07:39:42.209Z,11.45
2023-01-31T07:42:11.046Z,10.90
2023-01-31T07:44:38.592Z,10.75
2023-01-31T07:47:06.439Z,10.00
2023-01-31T07:49:33.942Z,10.60
2023-01-31T07:52:02.501Z,10.13
2023-01-31T07:54:30.157Z,9.43
2023-01-31T07:56:58.686Z,9.60
2023-01-31T07:59:26.474Z,10.60
2023-01-31T08:02:13.129Z,10.32
2023-01-31T08:04:41.031Z,8.93
2023-01-31T08:07:10.438Z,9.02
2023-01-31T08:09:39.319Z,8.38
2023-01-31T08:12:08.414Z,8.43
2023-01-31T08:14:35.942Z,9.10
2023-01-31T08:17:03.864Z,9.60
2023-01-31T08:19:31.867Z,8.38
2023-01-31T08:21:59.704Z,8.20
2023-01-31T08:24:27.669Z,8.68
2023-01-31T08:26:55.357Z,8.52
2023-01-31T08:29:23.205Z,8.70
2023-01-31T08:31:54.598Z,7.70
2023-01-31T08:34:23.481Z,7.93
2023-01-31T08:36:54.483Z,7.80
2023-01-31T08:39:22.231Z,7.00
2023-01-31T08:41:52.410Z,8.05
2023-01-31T08:44:20.364Z,6.93
2023-01-31T08:46:48.477Z,6.95
2023-01-31T08:49:16.304Z,6.78
2023-01-31T08:51:45.222Z,7.40
2023-01-31T08:54:13.194Z,8.35
2023-01-31T08:56:41.013Z,6.68
2023-01-31T08:59:08.617Z,6.63
2023-01-31T09:01:36.589Z,7.55
2023-01-31T09:04:04.029Z,7.78
2023-01-31T09:06:32.503Z,7.10
2023-01-31T09:09:03.032Z,6.60
2023-01-31T09:11:32.129Z,7.07
2023-01-31T09:14:00.049Z,6.70
2023-01-31T09:16:27.764Z,6.60
2023-01-31T09:18:56.506Z,7.20
2023-01-31T09:21:24.737Z,7.80
2023-01-31T09:24:02.495Z,7.55
2023-01-31T09:26:30.923Z,7.43
2023-01-31T09:29:01.560Z,7.30
2023-01-31T09:31:30.436Z,7.30
2023-01-31T09:33:58.978Z,6.80
2023-01-31T09:36:28.559Z,6.40
2023-01-31T09:38:57.232Z,6.90
2023-01-31T09:41:42.016Z,7.22
2023-01-31T09:44:12.796Z,6.30
2023-01-31T09:46:43.736Z,6.18
2023-01-31T09:49:16.108Z,6.45
2023-01-31T09:51:44.915Z,6.40
2023-01-31T09:54:23.121Z,6.80
2023-01-31T09:57:13.325Z,6.80
2023-01-31T09:59:55.433Z,6.43
2023-01-31T10:02:29.799Z,6.88
2023-01-31T10:04:57.842Z,5.90
2023-01-31T10:07:39.083Z,6.55
2023-01-31T10:10:23.971Z,6.95
2023-01-31T10:12:57.916Z,6.72
2023-01-31T10:15:25.953Z,7.55
2023-01-31T10:17:57.351Z,7.35
2023-01-31T10:20:34.107Z,7.63
2023-01-31T10:23:08.353Z,8.00
2023-01-31T10:25:56.679Z,7.15
2023-01-31T10:28:24.143Z,8.35
2023-01-31T10:30:57.530Z,7.63
2023-01-31T10:33:31.603Z,8.40
2023-01-31T10:36:03.013Z,9.75
2023-01-31T10:38:39.889Z,8.88
2023-01-31T10:41:11.814Z,9.88
2023-01-31T10:43:42.968Z,11.07
2023-01-31T10:46:11.885Z,10.98
2023-01-31T10:48:40.109Z,10.73
2023-01-31T10:51:26.838Z,12.23
2023-01-31T10:54:13.372Z,10.70
2023-01-31T10:56:46.087Z,11.65
2023-01-31T10:59:17.399Z,13.18
2023-01-31T11:01:45.706Z,12.13
2023-01-31T11:04:25.679Z,12.38
2023-01-31T11:06:54.273Z,12.95
2023-01-31T11:09:24.253Z,13.20
2023-01-31T11:11:59.469Z,13.48
2023-01-31T11:14:27.500Z,13.60
2023-01-31T11:17:00.052Z,14.82
2023-01-31T11:19:29.740Z,15.45
2023-01-31T11:21:57.656Z,16.13
2023-01-31T11:24:26.170Z,15.77
2023-01-31T11:26:53.800Z,15.18
2023-01-31T11:29:24.675Z,14.75
2023-01-31T11:31:53.337Z,15.32
2023-01-31T11:34:22.664Z,14.90
2023-01-31T11:36:51.171Z,14.95
2023-01-31T11:39:38.022Z,14.85
2023-01-31T11:42:09.299Z,15.07
2023-01-31T11:44:37.290Z,16.13
2023-01-31T11:47:06.039Z,16.40
2023-01-31T11:49:33.643Z,16.40
2023-01-31T11:52:03.402Z,17.85
2023-01-31T11:54:33.339Z,16.60
2023-01-31T11:57:02.289Z,16.20
2023-01-31T11:59:31.389Z,15.13
2023-01-31T12:02:01.437Z,15.75
2023-01-31T12:04:33.853Z,15.85
2023-01-31T12:07:21.787Z,16.02
2023-01-31T12:09:51.115Z,16.77
2023-01-31T12:12:31.446Z,15.57
2023-01-31T12:15:06.213Z,16.23
2023-01-31T12:17:41.927Z,16.13
2023-01-31T12:20:28.477Z,15.70
2023-01-31T12:23:04.191Z,15.40
2023-01-31T12:26:04.124Z,14.77
2023-01-31T12:28:34.857Z,13.18
2023-01-31T12:31:08.259Z,13.05
2023-01-31T12:33:44.312Z,8.30
2023-01-31T12:36:15.462Z,9.10
2023-01-31T12:38:55.514Z,7.75
2023-01-31T12:41:26.183Z,7.88
2023-01-31T12:46:41.495Z,7.70
2023-01-31T12:49:27.986Z,7.72
2023-01-31T12:52:08.090Z,8.70
2023-01-31T12:54:41.992Z,8.63
2023-01-31T12:57:18.513Z,8.35
2023-01-31T13:00:12.627Z,8.13
2023-01-31T13:03:01.459Z,8.68
2023-01-31T13:05:32.001Z,8.50
2023-01-31T13:10:31.144Z,8.07
2023-01-31T13:13:00.152Z,7.88
2023-01-31T13:15:28.196Z,7.18
2023-01-31T13:17:58.302Z,6.97
2023-01-31T13:20:29.302Z,7.68
2023-01-31T13:23:00.112Z,7.40
2023-01-31T13:25:37.313Z,7.50
2023-01-31T13:28:10.633Z,6.75
2023-01-31T13:30:51.690Z,7.15
2023-01-31T13:33:22.973Z,7.20
2023-01-31T13:35:59.291Z,7.63
2023-01-31T13:38:29.284Z,7.72
2023-01-31T13:40:58.391Z,7.23
2023-01-31T13:43:26.085Z,7.82
2023-01-31T13:45:59.920Z,7.28
2023-01-31T13:48:36.193Z,7.97
2023-01-31T13:51:11.829Z,7.32
2023-01-31T13:53:45.535Z,6.43
2023-01-31T13:56:18.799Z,6.90
2023-01-31T13:58:48.924Z,7.60
2023-01-31T14:01:22.788Z,5.97
2023-01-31T14:04:09.353Z,9.15
2023-01-31T14:07:06.742Z,6.57
2023-01-31T14:09:44.877Z,6.50
2023-01-31T14:12:18.224Z,6.15
2023-01-31T14:14:55.522Z,6.10
2023-01-31T14:17:22.926Z,5.68
2023-01-31T14:19:53.511Z,5.70
2023-01-31T14:22:34.130Z,6.43
2023-01-31T14:25:03.204Z,5.72
2023-01-31T14:28:03.693Z,5.55
2023-01-31T14:30:35.766Z,5.18
2023-01-31T14:33:08.813Z,5.63
2023-01-31T14:35:36.287Z,4.85
2023-01-31T14:38:10.233Z,5.88
2023-01-31T14:40:37.966Z,5.70
2023-01-31T14:43:05.547Z,5.55
2023-01-31T14:45:36.421Z,6.25
2023-01-31T14:48:15.231Z,5.85
2023-01-31T14:50:42.753Z,4.95
2023-01-31T14:53:30.791Z,5.10
2023-01-31T14:56:07.779Z,4.50
2023-01-31T14:58:36.331Z,4.68
2023-01-31T15:01:08.948Z,4.57
2023-01-31T15:03:40.290Z,5.50
2023-01-31T15:06:13.482Z,5.43
2023-01-31T15:08:41.204Z,4.75
2023-01-31T15:11:13.311Z,4.72
2023-01-31T15:13:51.790Z,4.90
2023-01-31T15:16:33.402Z,5.05
2023-01-31T15:19:02.263Z,5.35
2023-01-31T15:21:31.970Z,4.57
2023-01-31T15:24:01.145Z,4.80
2023-01-31T15:26:30.336Z,5.85
2023-01-31T15:28:58.827Z,5.55
2023-01-31T15:31:32.902Z,4.32
2023-01-31T15:34:03.637Z,4.45
2023-01-31T15:36:45.864Z,4.65
2023-01-31T15:39:24.852Z,4.80
2023-01-31T15:41:53.364Z,4.72
2023-01-31T15:44:28.128Z,4.15
2023-01-31T15:46:58.144Z,4.30
2023-01-31T15:49:38.641Z,4.30
2023-01-31T15:52:13.550Z,4.88
2023-01-31T15:54:52.856Z,5.07
2023-01-31T15:57:25.122Z,4.22
2023-01-31T15:59:53.806Z,4.65
2023-01-31T16:02:33.670Z,4.40
2023-01-31T16:05:05.633Z,4.93
2023-01-31T16:07:33.223Z,5.03
2023-01-31T16:10:04.927Z,5.35
2023-01-31T16:12:33.198Z,4.68
2023-01-31T16:15:03.953Z,3.67
2023-01-31T16:17:31.907Z,3.95
2023-01-31T16:19:59.583Z,4.35
2023-01-31T16:22:31.359Z,3.55
2023-01-31T16:25:00.778Z,3.80
2023-01-31T16:27:29.832Z,4.72
2023-01-31T16:29:59.392Z,3.75
2023-01-31T16:32:29.750Z,4.97
2023-01-31T16:35:05.293Z,4.13
2023-01-31T16:37:33.359Z,4.68
2023-01-31T16:40:07.065Z,4.03
2023-01-31T16:42:36.496Z,4.35
2023-01-31T16:45:05.338Z,5.50
2023-01-31T16:47:46.493Z,4.38
2023-01-31T16:50:32.803Z,4.18
2023-01-31T16:53:27.860Z,3.80
2023-01-31T16:56:14.505Z,4.28
2023-01-31T16:58:45.693Z,4.85
2023-01-31T17:01:14.070Z,4.72
2023-01-31T17:03:41.920Z,3.40
2023-01-31T17:06:09.999Z,2.97
2023-01-31T17:08:41.115Z,3.63
2023-01-31T17:11:13.859Z,4.45
2023-01-31T17:13:44.051Z,3.63
2023-01-31T17:16:22.983Z,7.78
2023-01-31T17:18:55.032Z,5.00
2023-01-31T17:21:23.763Z,17.92
2023-01-31T17:23:52.762Z,22.85
2023-01-31T17:26:22.682Z,9.52
2023-01-31T17:29:01.950Z,5.30
2023-01-31T17:31:31.436Z,5.80
2023-01-31T17:34:00.127Z,5.28
2023-01-31T17:36:27.661Z,4.93
2023-01-31T17:38:55.184Z,4.50
2023-01-31T17:41:24.854Z,3.45
2023-01-31T17:43:53.331Z,4.47
2023-01-31T17:46:24.967Z,4.60
2023-01-31T17:48:52.825Z,3.45
2023-01-31T17:51:21.959Z,3.90
2023-01-31T17:53:50.706Z,4.90
2023-01-31T17:56:20.285Z,8.73
2023-01-31T17:58:51.737Z,17.35
2023-01-31T18:01:20.194Z,27.92
2023-01-31T18:03:48.231Z,9.27
2023-01-31T18:06:16.496Z,6.72
2023-01-31T18:08:44.776Z,8.77
2023-01-31T18:11:14.354Z,9.20
2023-01-31T18:13:42.627Z,4.88
2023-01-31T18:16:11.546Z,3.25
2023-01-31T18:18:42.859Z,4.03
2023-01-31T18:23:38.191Z,3.80
2023-01-31T18:26:10.558Z,4.68
2023-01-31T18:28:41.579Z,5.00
2023-01-31T18:31:15.486Z,4.15
2023-01-31T18:33:45.139Z,5.97
2023-01-31T18:36:14.745Z,4.95
2023-01-31T18:38:43.717Z,4.82
2023-01-31T18:41:14.887Z,5.00
2023-01-31T18:43:43.657Z,5.57
2023-01-31T18:46:11.532Z,5.20
2023-01-31T18:48:40.394Z,4.78
2023-01-31T18:51:09.073Z,5.20
2023-01-31T18:53:37.347Z,5.57
2023-01-31T18:56:06.659Z,5.85
2023-01-31T18:58:39.259Z,5.53
2023-01-31T19:01:22.092Z,4.55
2023-01-31T19:03:53.079Z,4.93
2023-01-31T19:06:22.287Z,4.57
2023-01-31T19:08:51.432Z,5.43
2023-01-31T19:11:22.466Z,3.97
2023-01-31T19:13:51.751Z,4.20
2023-01-31T19:16:22.440Z,4.00
2023-01-31T19:18:53.704Z,4.35
2023-01-31T19:21:23.448Z,4.50
2023-01-31T19:23:52.632Z,4.13
2023-01-31T19:26:24.440Z,4.25
2023-01-31T19:28:52.745Z,4.70
2023-01-31T19:31:22.063Z,4.20
2023-01-31T19:33:53.966Z,4.63
2023-01-31T19:36:52.807Z,4.70
2023-01-31T19:39:21.429Z,5.28
2023-01-31T19:41:49.860Z,6.10
2023-01-31T19:44:21.346Z,6.13
2023-01-31T19:46:51.800Z,6.82
2023-01-31T19:49:20.893Z,6.20
2023-01-31T19:51:48.952Z,6.10
2023-01-31T19:54:18.201Z,5.55
2023-01-31T19:56:46.068Z,6.00
2023-01-31T19:59:14.166Z,6.07
2023-01-31T20:01:41.969Z,5.25
2023-01-31T20:04:09.519Z,5.13
2023-01-31T20:06:37.181Z,5.00
2023-01-31T20:09:07.420Z,5.80
2023-01-31T20:11:36.862Z,4.82
2023-01-31T20:14:06.131Z,5.03
2023-01-31T20:16:33.740Z,4.57
2023-01-31T20:19:07.191Z,4.65
2023-01-31T20:21:35.246Z,5.50
2023-01-31T20:24:03.439Z,6.07
2023-01-31T20:26:31.823Z,5.05
2023-01-31T20:29:00.104Z,4.88
2023-01-31T20:31:27.914Z,6.38
2023-01-31T20:33:55.863Z,4.78
2023-01-31T20:36:23.932Z,5.20
2023-01-31T20:38:52.201Z,5.22
2023-01-31T20:41:20.377Z,5.05
2023-01-31T20:43:48.676Z,4.20
2023-01-31T20:46:20.020Z,4.30
2023-01-31T20:48:47.898Z,4.82
2023-01-31T20:51:15.601Z,4.43
2023-01-31T20:53:43.409Z,5.93
2023-01-31T20:56:12.058Z,5.00
2023-01-31T20:58:40.449Z,5.35
2023-01-31T21:01:07.996Z,6.07
2023-01-31T21:03:35.978Z,5.85
2023-01-31T21:06:04.607Z,5.30
2023-01-31T21:08:32.322Z,5.63
2023-01-31T21:11:03.536Z,5.68
2023-01-31T21:13:33.154Z,5.90
2023-01-31T21:16:02.464Z,5.93
2023-01-31T21:18:31.376Z,6.43
2023-01-31T21:20:59.422Z,5.25
2023-01-31T21:23:29.878Z,5.70
2023-01-31T21:28:27.669Z,4.32
2023-01-31T21:31:03.001Z,5.00
2023-01-31T21:33:31.029Z,5.57
2023-01-31T21:36:00.725Z,5.30
2023-01-31T21:38:28.885Z,6.18
2023-01-31T21:41:15.115Z,5.40
2023-01-31T21:43:43.003Z,6.05
2023-01-31T21:46:12.446Z,6.30
2023-01-31T21:48:40.391Z,5.90
2023-01-31T21:51:09.611Z,8.57
2023-01-31T21:53:37.818Z,6.70
2023-01-31T21:56:06.716Z,7.65
2023-01-31T21:58:35.461Z,5.72
2023-01-31T22:01:07.425Z,5.82
2023-01-31T22:03:35.959Z,5.68
2023-01-31T22:06:04.565Z,5.80
2023-01-31T22:08:32.529Z,6.82
2023-01-31T22:11:04.388Z,7.00
2023-01-31T22:13:32.905Z,6.00
2023-01-31T22:16:04.879Z,6.35
2023-01-31T22:18:32.868Z,5.57
2023-01-31T22:21:02.980Z,5.90
2023-01-31T22:23:34.652Z,6.43
2023-01-31T22:26:10.045Z,6.25
2023-01-31T22:28:37.905Z,6.53
2023-01-31T22:31:06.536Z,6.32
2023-01-31T22:33:35.004Z,6.72
2023-01-31T22:36:03.269Z,5.70
2023-01-31T22:38:31.154Z,6.30
2023-01-31T22:41:07.072Z,5.90
2023-01-31T22:43:39.567Z,7.25
2023-01-31T22:46:08.054Z,6.15
2023-01-31T22:48:36.332Z,5.20
2023-01-31T22:51:06.615Z,7.50
2023-01-31T22:53:36.694Z,5.72
2023-01-31T22:56:08.701Z,5.70
2023-01-31T22:58:36.201Z,5.20
2023-01-31T23:01:10.534Z,5.55
2023-01-31T23:03:38.023Z,4.30
2023-01-31T23:06:06.028Z,5.60
2023-01-31T23:08:33.843Z,4.97
2023-01-31T23:11:14.802Z,4.18
2023-01-31T23:13:42.960Z,4.63
2023-01-31T23:16:11.818Z,4.32
2023-01-31T23:18:39.578Z,4.10
2023-01-31T23:21:07.660Z,4.82
2023-01-31T23:23:35.216Z,3.80
2023-01-31T23:26:02.795Z,3.85
2023-01-31T23:28:30.781Z,4.70
2023-01-31T23:30:58.350Z,3.97
2023-01-31T23:33:26.156Z,4.20
2023-01-31T23:35:54.116Z,3.50
2023-01-31T23:38:23.067Z,4.95
2023-01-31T23:40:54.066Z,4.35
2023-01-31T23:43:22.682Z,3.50
2023-01-31T23:45:53.793Z,3.72
2023-01-31T23:48:21.537Z,6.47
2023-01-31T23:50:50.185Z,3.38
2023-01-31T23:53:17.606Z,4.47
2023-01-31T23:55:45.151Z,3.65
2023-01-31T23:58:13.094Z,4.03
